M I D A S
Marine Information and Data Acquisition System
Tripno 584 of the Zeeleeuw from 2003-09-05 06:59:14 to 2003-09-05 13:47:11
Back to CruiseResearch ActivitiesStationsMapUnderway DataData graphs

EquipmentUnitsComment
TimeDGPSUTC
LatitudeDGPSDM.mWGS84
LongitudeDGPSDM.mWGS84
HeadingGyrodeg 
SOGDGPSknotsSpeed over ground
COGDGPSdegCourse over ground
DepthEcho soundermeters200 kHz
Missing or incorrect values are displayed as -999
Navigation data collected by the RV Zeeleeuw from 2003-09-05 06:59:14 to 2003-09-05 13:47:11
Time Latitude Longitude Heading SOG COG Depth
2003-09-05 07:00:20 51°14.44 2°54.93 301.2 8.1 300 13.1
2003-09-05 07:01:20 51°14.46 2°54.73 269 7.5 267 13.2
2003-09-05 07:02:20 51°14.45 2°54.59 261.3 4.1 262 13.4
2003-09-05 07:03:20 51°14.45 2°54.5 279.5 3.1 286 13.2
2003-09-05 07:04:20 51°14.47 2°54.43 273.8 2.5 285 13.8
2003-09-05 07:05:20 51°14.47 2°54.37 261.1 2.1 271 13.7
2003-09-05 07:06:20 51°14.47 2°54.32 256 1.9 264 13.6
2003-09-05 07:07:20 51°14.44 2°54.16 253.3 9.8 250 11.8
2003-09-05 07:08:20 51°14.35 2°53.88 247.5 12.3 244 11.9
2003-09-05 07:09:20 51°14.25 2°53.59 244.4 12.6 240 11.9
2003-09-05 07:10:20 51°14.15 2°53.31 244.1 12.5 240 12.3
2003-09-05 07:11:20 51°14.05 2°53.01 245.3 12.6 242 12.7
2003-09-05 07:12:20 51°13.95 2°52.72 245.6 12.7 241 12.9
2003-09-05 07:13:20 51°13.85 2°52.43 245.8 12.7 241 12.9
2003-09-05 07:14:20 51°13.74 2°52.13 245.4 12.7 242 13.1
2003-09-05 07:15:20 51°13.64 2°51.85 245.4 12.5 242 13.1
2003-09-05 07:16:20 51°13.54 2°51.55 246 12.6 242 13.3
2003-09-05 07:17:20 51°13.44 2°51.27 245.3 12.5 241 13.4
2003-09-05 07:18:20 51°13.34 2°50.98 245.2 12.6 240 13.5
2003-09-05 07:19:20 51°13.24 2°50.68 246.4 12.7 242 13.5
2003-09-05 07:20:20 51°13.13 2°50.39 245.8 12.6 242 13.7
2003-09-05 07:21:20 51°13.03 2°50.1 245.5 12.7 242 13.8
2003-09-05 07:22:20 51°12.93 2°49.8 246.2 12.6 240 13.9
2003-09-05 07:23:20 51°12.83 2°49.51 244.9 12.5 241 13.9
2003-09-05 07:24:20 51°12.73 2°49.22 244 12.6 241 14.2
2003-09-05 07:25:20 51°12.62 2°48.93 244.7 12.6 241 14.3
2003-09-05 07:26:20 51°12.52 2°48.64 245.3 12.6 240 14.4
2003-09-05 07:27:20 51°12.42 2°48.35 245.7 12.6 242 14.5
2003-09-05 07:28:20 51°12.32 2°48.06 246.2 12.8 242 14.6
2003-09-05 07:29:20 51°12.22 2°47.76 244.5 12.6 241 14.7
2003-09-05 07:30:20 51°12.11 2°47.47 244.8 12.6 241 14.8
2003-09-05 07:31:20 51°12.01 2°47.18 245.3 12.6 240 14.7
2003-09-05 07:32:20 51°11.91 2°46.89 245.5 12.6 243 14.6
2003-09-05 07:33:20 51°11.81 2°46.6 244.9 12.6 243 14.6
2003-09-05 07:34:20 51°11.72 2°46.3 246.1 12.7 244 14.7
2003-09-05 07:35:20 51°11.62 2°46.01 244.9 12.5 240 14.4
2003-09-05 07:36:20 51°11.52 2°45.71 245.8 12.7 243 14.2
2003-09-05 07:37:20 51°11.42 2°45.42 244.5 12.6 244 14
2003-09-05 07:38:20 51°11.32 2°45.12 243.1 12.7 239 13.7
2003-09-05 07:39:20 51°11.22 2°44.83 245.1 12.9 241 13.5
2003-09-05 07:40:20 51°11.12 2°44.53 243.5 12.7 240 13.2
2003-09-05 07:41:20 51°11.01 2°44.24 243.8 12.8 240 12.9
2003-09-05 07:42:20 51°10.91 2°43.94 245.3 12.8 242 12.4
2003-09-05 07:43:20 51°10.81 2°43.64 245.6 12.8 246 12.3
2003-09-05 07:44:20 51°10.81 2°43.3 282.3 12.9 281 13
2003-09-05 07:45:20 51°10.85 2°42.96 283.3 13.1 282 14
2003-09-05 07:46:20 51°10.89 2°42.62 282.7 13 281 14.3
2003-09-05 07:47:20 51°10.93 2°42.29 283 13 281 14.7
2003-09-05 07:48:20 51°10.98 2°41.95 283 12.9 282 14.4
2003-09-05 07:49:20 51°10.97 2°41.62 258.1 12.4 252 14.4
2003-09-05 07:50:20 51°10.86 2°41.35 234 12.7 232 14.4
2003-09-05 07:51:20 51°10.74 2°41.07 239.4 12.6 234 14.6
2003-09-05 07:52:18 51°10.61 2°40.82 234.4 12.6 232 14.6
2003-09-05 07:53:19 51°10.47 2°40.57 232.2 12.5 229 14.8
2003-09-05 07:54:19 51°10.33 2°40.32 232.7 12.7 229 14.4
2003-09-05 07:55:19 51°10.19 2°40.07 231.5 12.5 228 14.2
2003-09-05 07:56:19 51°10.05 2°39.82 231.1 12.6 228 13.5
2003-09-05 07:57:19 51°9.91 2°39.57 231.5 12.8 229 12.9
2003-09-05 07:58:19 51°9.77 2°39.31 233.3 12.8 235 12.6
2003-09-05 07:59:19 51°9.74 2°38.99 280.3 12.9 283 13.2
2003-09-05 08:00:19 51°9.88 2°38.74 334.1 13.4 336 15.6
2003-09-05 08:01:19 51°10.1 2°38.61 334 13.6 333 17.5
2003-09-05 08:02:19 51°10.29 2°38.42 328 13.6 328 18
2003-09-05 08:03:19 51°10.44 2°38.18 292.4 12.5 289 19.6
2003-09-05 08:04:19 51°10.37 2°37.9 227.5 12.4 223 20
2003-09-05 08:05:19 51°10.21 2°37.68 223.4 12.7 222 19.7
2003-09-05 08:06:19 51°10.05 2°37.45 226.4 12.8 223 19.5
2003-09-05 08:07:19 51°9.9 2°37.22 225.7 12.9 224 19.1
2003-09-05 08:08:19 51°9.74 2°36.99 225.5 12.7 223 18.2
2003-09-05 08:09:19 51°9.59 2°36.76 225.7 12.8 225 17.5
2003-09-05 08:10:19 51°9.44 2°36.52 225.9 12.7 223 17.6
2003-09-05 08:11:19 51°9.29 2°36.3 228.3 12.4 228 17.8
2003-09-05 08:12:19 51°9.24 2°36.06 277.5 6.9 282 18
2003-09-05 08:13:19 51°9.28 2°35.93 300.4 4.6 306 18.4
2003-09-05 08:14:19 51°9.32 2°35.84 296 3.6 303 18.8
2003-09-05 08:15:19 51°9.34 2°35.77 284.4 2.6 293 19.1
2003-09-05 08:16:19 51°9.35 2°35.72 270.3 1.8 281 18.1
2003-09-05 08:17:19 51°9.36 2°35.68 258.9 1.3 274 18.1
2003-09-05 08:18:19 51°9.36 2°35.64 254.7 1.7 264 18.6
2003-09-05 08:19:19 51°9.35 2°35.6 255.1 1.5 268 18.4
2003-09-05 08:20:19 51°9.35 2°35.56 254.6 1.3 268 18.7
2003-09-05 08:21:19 51°9.35 2°35.53 264.5 1.2 287 18.8
2003-09-05 08:22:19 51°9.36 2°35.5 278.5 1.2 298 18.3
2003-09-05 08:23:19 51°9.38 2°35.47 294.9 1.4 320 19.2
2003-09-05 08:24:19 51°9.4 2°35.45 307.7 1.4 327 18.9
2003-09-05 08:25:19 51°9.42 2°35.44 320.7 1.5 339 18.9
2003-09-05 08:26:19 51°9.44 2°35.43 335.3 1.5 353 18.7
2003-09-05 08:27:19 51°9.47 2°35.43 351.1 1.6 6 19.5
2003-09-05 08:28:19 51°9.5 2°35.44 3.6 1.7 12 19.2
2003-09-05 08:29:19 51°9.53 2°35.45 15.2 1.7 20 19.2
2003-09-05 08:30:19 51°9.55 2°35.47 26.7 1.8 28 20.1
2003-09-05 08:31:19 51°9.58 2°35.49 33.5 1.8 34 20
2003-09-05 08:32:19 51°9.6 2°35.52 37 1.8 33 20.2
2003-09-05 08:33:25 51°9.63 2°35.55 39.9 1.8 34 19.3
2003-09-05 08:34:29 51°9.66 2°35.58 44 1.9 37 19.8
2003-09-05 08:35:29 51°9.73 2°35.63 15.6 9.6 13 20.1
2003-09-05 08:36:29 51°9.94 2°35.68 10.5 14.1 7 19
2003-09-05 08:37:29 51°10.17 2°35.73 11.3 14.1 8 12.1
2003-09-05 08:38:29 51°10.4 2°35.82 25.3 14.2 21 12.6
2003-09-05 08:39:29 51°10.62 2°35.95 24.8 14.2 20 12.8
2003-09-05 08:40:29 51°10.82 2°36.14 45.6 14.1 41 13
2003-09-05 08:41:29 51°11 2°36.39 45.7 14.2 41 13.5
2003-09-05 08:42:29 51°11.17 2°36.65 52 14.2 47 14.1
2003-09-05 08:43:29 51°11.33 2°36.93 52.2 14.2 47 14.8
2003-09-05 08:44:29 51°11.49 2°37.2 51.9 14.1 47 15.1
2003-09-05 08:45:29 51°11.65 2°37.47 51.9 14.2 48 15.3
2003-09-05 08:46:29 51°11.82 2°37.74 48.8 13.4 44 15.2
2003-09-05 08:47:29 51°11.87 2°37.93 108.4 5.2 99 15.4
2003-09-05 08:48:29 51°11.82 2°38.01 182.5 4.9 180 15.6
2003-09-05 08:49:29 51°11.79 2°37.9 293.9 6 300 15.2
2003-09-05 08:50:29 51°11.85 2°37.85 355.8 0.5 29 15.6
2003-09-05 08:51:31 51°11.86 2°37.86 358.5 0.5 10 15.4
2003-09-05 08:52:29 51°11.87 2°37.86 359.8 0.7 15 15.4
2003-09-05 08:53:29 51°11.88 2°37.86 4.9 0.7 17 15.4
2003-09-05 08:54:29 51°11.89 2°37.87 7.3 0.7 14 15.4
2003-09-05 08:55:29 51°11.9 2°37.87 6.9 0.8 15 15.2
2003-09-05 08:56:29 51°11.91 2°37.88 6.8 0.8 15 15.5
2003-09-05 08:57:29 51°11.93 2°37.89 8.2 0.9 14 15.4
2003-09-05 08:58:29 51°11.94 2°37.89 12.3 0.9 17 15.4
2003-09-05 08:59:29 51°11.95 2°37.9 15.4 0.8 13 15.2
2003-09-05 09:00:29 51°11.97 2°37.9 18.7 0.8 13 15.2
2003-09-05 09:01:29 51°11.98 2°37.91 22.6 0.9 16 15.9
2003-09-05 09:02:31 51°11.99 2°37.91 25.4 0.8 17 -999
2003-09-05 09:03:29 51°12.01 2°37.92 27.5 0.8 17 15.3
2003-09-05 09:04:37 51°12.04 2°37.94 31.1 5.5 26 15.3
2003-09-05 09:05:37 51°12.19 2°38.06 29.7 13.3 25 14.8
2003-09-05 09:06:37 51°12.4 2°38.21 28.8 14 24 14.6
2003-09-05 09:07:37 51°12.61 2°38.36 30.3 14 25 14.4
2003-09-05 09:08:37 51°12.82 2°38.52 30 13.9 25 14.6
2003-09-05 09:09:37 51°13.03 2°38.67 30 13.9 25 14.9
2003-09-05 09:10:37 51°13.24 2°38.83 29.6 13.9 25 13.7
2003-09-05 09:11:37 51°13.45 2°38.99 29.7 13.9 25 15
2003-09-05 09:12:37 51°13.66 2°39.14 30.5 13.9 25 15.1
2003-09-05 09:13:41 51°13.89 2°39.31 30.2 13.8 25 15.2
2003-09-05 09:14:41 51°14.11 2°39.36 355.2 13.3 345 14.9
2003-09-05 09:15:41 51°14.29 2°39.16 321.1 13.6 316 13.8
2003-09-05 09:16:41 51°14.42 2°38.87 297.3 13.3 289 19.1
2003-09-05 09:17:41 51°14.4 2°38.54 252.8 13.1 251 19.1
2003-09-05 09:18:41 51°14.32 2°38.21 252.8 13.1 249 19.1
2003-09-05 09:19:41 51°14.24 2°37.88 254 13.2 252 19.3
2003-09-05 09:20:41 51°14.17 2°37.55 254.2 13.1 251 18.2
2003-09-05 09:21:41 51°14.1 2°37.22 255 13.1 252 17.9
2003-09-05 09:22:41 51°14.03 2°36.89 254.2 13.3 251 17.8
2003-09-05 09:23:41 51°13.96 2°36.56 256.3 13.3 251 17.4
2003-09-05 09:24:41 51°13.89 2°36.22 254.7 13.3 253 17.3
2003-09-05 09:25:41 51°13.83 2°35.89 254.8 13.2 250 17.1
2003-09-05 09:26:41 51°13.69 2°35.63 228.8 13.1 224 17.8
2003-09-05 09:27:41 51°13.53 2°35.38 228.5 13.3 226 18.1
2003-09-05 09:28:41 51°13.38 2°35.14 225.8 13.1 221 17.3
2003-09-05 09:29:41 51°13.22 2°34.9 225.5 13 221 18.5
2003-09-05 09:30:41 51°13.05 2°34.67 224.7 13.2 221 18.6
2003-09-05 09:31:41 51°12.91 2°34.42 242.9 12.9 244 18.2
2003-09-05 09:32:41 51°12.86 2°34.08 258.1 13 253 17.9
2003-09-05 09:33:41 51°12.77 2°33.77 248.2 13 244 17.2
2003-09-05 09:34:41 51°12.67 2°33.45 247.2 13.3 246 15.9
2003-09-05 09:35:41 51°12.58 2°33.13 248.7 13.2 245 15.7
2003-09-05 09:36:41 51°12.5 2°32.81 252.2 13.3 249 16.8
2003-09-05 09:37:41 51°12.42 2°32.48 251.6 13.2 248 18.1
2003-09-05 09:38:41 51°12.34 2°32.15 253.4 13.2 249 19.7
2003-09-05 09:39:41 51°12.26 2°31.82 251.9 13.3 248 22.5
2003-09-05 09:40:41 51°12.18 2°31.49 252.5 13.5 250 22.8
2003-09-05 09:41:41 51°12.1 2°31.16 252.5 13.3 248 23.3
2003-09-05 09:42:41 51°12.02 2°30.83 252.9 13.2 248 23.4
2003-09-05 09:43:41 51°11.94 2°30.5 252.4 13.2 248 23.5
2003-09-05 09:44:41 51°11.86 2°30.18 249.6 13.2 247 23.4
2003-09-05 09:45:41 51°11.78 2°29.85 251.8 13.4 248 23.6
2003-09-05 09:46:41 51°11.7 2°29.52 252.3 13.4 248 23.5
2003-09-05 09:47:41 51°11.62 2°29.19 255.1 13.4 251 24.1
2003-09-05 09:48:41 51°11.56 2°28.85 254.7 13.4 254 24.9
2003-09-05 09:49:41 51°11.5 2°28.51 259.1 13.6 256 22.9
2003-09-05 09:50:41 51°11.44 2°28.16 257.6 13.5 254 23.9
2003-09-05 09:51:41 51°11.38 2°27.81 256.9 13.5 254 23.7
2003-09-05 09:52:41 51°11.32 2°27.46 256.9 13.7 255 22.5
2003-09-05 09:53:41 51°11.26 2°27.11 257 13.8 255 22.3
2003-09-05 09:54:41 51°11.2 2°26.76 257.1 13.6 257 21.4
2003-09-05 09:55:41 51°11.15 2°26.42 258 13.6 256 18.9
2003-09-05 09:56:41 51°11.1 2°26.06 262.9 13.5 261 16.7
2003-09-05 09:57:41 51°11.07 2°25.71 264.4 13.5 263 13.9
2003-09-05 09:58:41 51°11.05 2°25.35 275.3 13.6 277 18.7
2003-09-05 09:59:41 51°11.13 2°25.01 300.9 13.6 300 23.2
2003-09-05 10:00:41 51°11.32 2°24.83 350.2 13.9 350 26.1
2003-09-05 10:01:41 51°11.55 2°24.84 10.8 14.2 7 27.1
2003-09-05 10:02:41 51°11.79 2°24.89 14.1 14.3 10 25.8
2003-09-05 10:03:41 51°12.02 2°24.96 14.7 14.2 11 27.1
2003-09-05 10:04:41 51°12.25 2°25.03 13.8 14 9 26.1
2003-09-05 10:05:41 51°12.48 2°25.09 14.5 14 10 26.7
2003-09-05 10:06:41 51°12.7 2°25.15 13.9 13.8 9 27.1
2003-09-05 10:07:41 51°12.92 2°25.21 16.2 10.5 13 27.7
2003-09-05 10:08:41 51°13.04 2°25.28 30.3 5.8 27 29.2
2003-09-05 10:09:41 51°13.1 2°25.35 52.5 3.3 46 28.7
2003-09-05 10:10:41 51°13.13 2°25.4 62.8 2.3 51 27.5
2003-09-05 10:11:41 51°13.14 2°25.44 70.3 1.5 55 27.6
2003-09-05 10:12:41 51°13.16 2°25.47 73.7 1.3 56 28.4
2003-09-05 10:13:41 51°13.17 2°25.5 75.2 1.4 55 28.5
2003-09-05 10:14:41 51°13.18 2°25.53 72.1 1.4 54 27.9
2003-09-05 10:15:41 51°13.2 2°25.56 69.5 1.5 52 28.1
2003-09-05 10:16:41 51°13.21 2°25.59 68.6 1.6 51 27.5
2003-09-05 10:17:45 51°13.23 2°25.63 70.4 1.6 50 27.2
2003-09-05 10:18:45 51°13.24 2°25.66 74.9 1.4 58 28
2003-09-05 10:19:49 51°13.26 2°25.7 78.7 1.5 61 27.4
2003-09-05 10:20:49 51°13.27 2°25.73 76.9 1.5 54 27.2
2003-09-05 10:21:53 51°13.29 2°25.77 76.2 1.5 54 27
2003-09-05 10:22:53 51°13.3 2°25.8 76.9 1.5 57 26.9
2003-09-05 10:23:55 51°13.31 2°25.83 80.8 1.4 60 27.1
2003-09-05 10:24:53 51°13.32 2°25.86 82.5 1.3 59 27.2
2003-09-05 10:25:55 51°13.34 2°25.89 80.3 1.3 60 26.8
2003-09-05 10:26:53 51°13.35 2°25.92 79.1 1.3 57 27.1
2003-09-05 10:27:55 51°13.36 2°25.95 78.8 1.2 56 27.6
2003-09-05 10:28:53 51°13.37 2°25.97 80.8 1.2 57 27.5
2003-09-05 10:29:55 51°13.38 2°26 83.5 1.1 58 27
2003-09-05 10:30:55 51°13.39 2°26.03 83.5 1.2 60 27.2
2003-09-05 10:31:53 51°13.41 2°26.1 85.6 6.7 78 27.1
2003-09-05 10:32:55 51°13.46 2°26.39 74.6 13.2 68 27.2
2003-09-05 10:33:55 51°13.55 2°26.73 74.6 13.6 68 27.9
2003-09-05 10:34:53 51°13.64 2°27.05 69.1 13.6 63 26.4
2003-09-05 10:35:53 51°13.75 2°27.36 64.2 13.8 57 26.2
2003-09-05 10:36:53 51°13.87 2°27.67 62.7 13.8 55 26.1
2003-09-05 10:37:55 51°14.01 2°27.98 60.9 13.8 54 26.7
2003-09-05 10:38:53 51°14.14 2°28.26 58.5 13.8 52 26.1
2003-09-05 10:39:53 51°14.28 2°28.55 58.8 13.8 52 27.3
2003-09-05 10:40:53 51°14.42 2°28.84 59.5 13.7 52 27.7
2003-09-05 10:41:53 51°14.56 2°29.12 58.2 13.6 52 27.4
2003-09-05 10:42:55 51°14.71 2°29.41 56.7 13.7 50 27.5
2003-09-05 10:43:53 51°14.86 2°29.67 52.8 13.7 48 27.3
2003-09-05 10:44:55 51°15.02 2°29.94 51.2 13.8 44 27.4
2003-09-05 10:45:53 51°15.18 2°30.18 48.6 13.7 43 27.6
2003-09-05 10:46:55 51°15.36 2°30.43 46 13.6 40 27.6
2003-09-05 10:47:55 51°15.53 2°30.66 46.9 13.7 41 27.6
2003-09-05 10:48:55 51°15.7 2°30.9 47.1 13.6 41 27.5
2003-09-05 10:49:53 51°15.87 2°31.13 46.8 13.7 41 27.4
2003-09-05 10:50:53 51°16.04 2°31.36 47.1 13.6 40 27
2003-09-05 10:51:55 51°16.22 2°31.61 47.2 13.6 40 27.8
2003-09-05 10:52:55 51°16.39 2°31.84 47.3 13.6 41 27.3
2003-09-05 10:53:53 51°16.56 2°32.07 47.9 13.7 42 26.3
2003-09-05 10:54:55 51°16.74 2°32.32 46.8 13.7 40 24.9
2003-09-05 10:55:55 51°16.91 2°32.55 45 13.6 39 25.2
2003-09-05 10:56:55 51°17.09 2°32.77 45.4 13.6 39 25.1
2003-09-05 10:57:55 51°17.27 2°33 44.8 13.6 40 25.5
2003-09-05 10:58:53 51°17.44 2°33.22 45 13.7 40 27.3
2003-09-05 10:59:55 51°17.62 2°33.46 45.2 13.6 40 27.5
2003-09-05 11:00:55 51°17.79 2°33.69 45 13.5 40 27.6
2003-09-05 11:01:55 51°17.96 2°33.92 45.7 13.5 39 27.7
2003-09-05 11:02:53 51°18.13 2°34.13 44.6 13.3 38 27.4
2003-09-05 11:03:55 51°18.32 2°34.34 37.8 13.4 31 26
2003-09-05 11:04:55 51°18.51 2°34.52 35.1 13.4 27 23.3
2003-09-05 11:05:55 51°18.71 2°34.67 33.2 13.5 27 22.4
2003-09-05 11:06:55 51°18.92 2°34.83 31.9 13.5 25 19.7
2003-09-05 11:07:53 51°19.11 2°34.98 31.7 13.6 26 20.4
2003-09-05 11:08:53 51°19.31 2°35.13 30.9 10.6 23 19.9
2003-09-05 11:09:53 51°19.42 2°35.2 35 5.6 26 19.4
2003-09-05 11:10:53 51°19.46 2°35.24 66.2 1.5 46 18.4
2003-09-05 11:11:53 51°19.47 2°35.27 80.4 1.1 61 19.1
2003-09-05 11:12:53 51°19.48 2°35.29 86.8 0.8 76 19.5
2003-09-05 11:13:53 51°19.48 2°35.31 93 0.7 85 19.7
2003-09-05 11:14:53 51°19.48 2°35.33 97.1 0.6 86 19.5
2003-09-05 11:15:53 51°19.48 2°35.35 98.7 1.2 99 18.7
2003-09-05 11:16:53 51°19.47 2°35.39 98.7 1.6 99 20.3
2003-09-05 11:17:53 51°19.47 2°35.44 95.8 1.8 95 20.4
2003-09-05 11:18:53 51°19.47 2°35.48 91.2 1.7 88 20.7
2003-09-05 11:19:53 51°19.47 2°35.53 88.1 1.6 85 19.8
2003-09-05 11:20:53 51°19.47 2°35.57 86.5 1.6 81 19.6
2003-09-05 11:21:53 51°19.47 2°35.61 89.5 1.5 88 20.5
2003-09-05 11:22:53 51°19.47 2°35.65 90.1 1.5 92 20.9
2003-09-05 11:23:53 51°19.47 2°35.69 91.7 1.5 94 21.4
2003-09-05 11:24:53 51°19.47 2°35.73 95.8 1.5 101 21.7
2003-09-05 11:25:53 51°19.46 2°35.76 98.3 1.5 98 22
2003-09-05 11:26:53 51°19.46 2°35.8 103.9 1.5 112 21.9
2003-09-05 11:27:53 51°19.45 2°35.84 109.3 1.6 119 22.4
2003-09-05 11:28:53 51°19.44 2°35.97 87 10.1 81 22.1
2003-09-05 11:29:53 51°19.5 2°36.29 74.8 13.1 71 18.9
2003-09-05 11:30:53 51°19.57 2°36.62 77 13 72 20.9
2003-09-05 11:31:53 51°19.64 2°36.94 76.2 13 71 19.5
2003-09-05 11:32:53 51°19.71 2°37.27 75.7 13 71 20.1
2003-09-05 11:33:53 51°19.78 2°37.6 76.1 13.1 71 22
2003-09-05 11:34:53 51°19.85 2°37.93 77 13 73 22.5
2003-09-05 11:35:53 51°19.92 2°38.25 76.3 13 71 22.7
2003-09-05 11:36:53 51°19.99 2°38.58 75.1 13 70 24.1
2003-09-05 11:37:53 51°20.05 2°38.91 77 12.9 73 24.4
2003-09-05 11:38:55 51°20.11 2°39.25 80 13 75 25.5
2003-09-05 11:39:55 51°20.15 2°39.59 82.6 13 79 27.4
2003-09-05 11:40:53 51°20.2 2°39.92 81.2 13.3 75 28
2003-09-05 11:41:53 51°20.24 2°40.26 87 13.3 81 27.8
2003-09-05 11:42:53 51°20.25 2°40.56 116.8 6.9 120 28.7
2003-09-05 11:43:53 51°20.16 2°40.56 219.6 6 228 28.6
2003-09-05 11:44:53 51°20.17 2°40.4 306.1 5 299 28.4
2003-09-05 11:45:55 51°20.18 2°40.37 347.6 0.8 262 -999
2003-09-05 11:46:53 51°20.18 2°40.35 340.4 0.7 278 28.3
2003-09-05 11:47:53 51°20.18 2°40.33 327.8 0.8 270 28.3
2003-09-05 11:48:53 51°20.18 2°40.31 323.9 0.8 271 28.3
2003-09-05 11:49:53 51°20.18 2°40.29 321.7 0.7 273 28.2
2003-09-05 11:50:53 51°20.18 2°40.27 322.9 0.7 278 28.2
2003-09-05 11:51:53 51°20.19 2°40.24 332.6 2.4 318 28.3
2003-09-05 11:52:53 51°20.25 2°40.19 346 4.3 334 27.9
2003-09-05 11:53:53 51°20.3 2°40.16 354.9 2.5 334 28.3
2003-09-05 11:54:53 51°20.32 2°40.13 358.5 1.6 320 27.6
2003-09-05 11:55:53 51°20.34 2°40.1 358.7 1.8 317 27.2
2003-09-05 11:56:53 51°20.41 2°40.11 39.5 7.3 33 27.3
2003-09-05 11:57:53 51°20.49 2°40.33 72.8 12.1 68 26.7
2003-09-05 11:58:53 51°20.53 2°40.66 90.7 12.9 86 27.2
2003-09-05 11:59:55 51°20.55 2°41.01 91 12.9 87 27.6
2003-09-05 12:00:55 51°20.55 2°41.35 93.7 12.8 91 21.8
2003-09-05 12:01:53 51°20.54 2°41.68 97.5 12.7 95 20.2
2003-09-05 12:02:53 51°20.52 2°42.02 97.2 12.7 94 17.9
2003-09-05 12:03:53 51°20.51 2°42.35 97.2 12.8 95 20.2
2003-09-05 12:04:53 51°20.49 2°42.69 97.7 12.8 94 22.7
2003-09-05 12:05:53 51°20.47 2°43.03 97.8 12.7 95 24.7
2003-09-05 12:06:53 51°20.45 2°43.37 97.9 12.7 95 26.3
2003-09-05 12:07:55 51°20.44 2°43.72 94.7 12.8 92 27
2003-09-05 12:08:53 51°20.43 2°44.05 95.3 12.9 93 27
2003-09-05 12:09:53 51°20.42 2°44.39 94.6 13 92 26.7
2003-09-05 12:10:53 51°20.42 2°44.74 95.8 13.1 92 25.2
2003-09-05 12:11:53 51°20.41 2°45.08 95 12.9 93 24.5
2003-09-05 12:12:53 51°20.41 2°45.41 86.4 9.7 82 24.1
2003-09-05 12:13:53 51°20.44 2°45.58 74.8 4.4 70 22.8
2003-09-05 12:14:53 51°20.46 2°45.64 53.5 1.6 35 21.9
2003-09-05 12:15:55 51°20.48 2°45.65 46.1 1.4 17 23.3
2003-09-05 12:16:53 51°20.5 2°45.66 64.4 0.8 38 22.9
2003-09-05 12:17:53 51°20.5 2°45.68 90.9 0.7 109 23.1
2003-09-05 12:18:53 51°20.48 2°45.7 127.4 1.8 155 23.1
2003-09-05 12:19:53 51°20.45 2°45.72 142.6 2.6 166 22.4
2003-09-05 12:20:53 51°20.41 2°45.73 145.9 2.3 173 19.8
2003-09-05 12:21:53 51°20.37 2°45.73 148.6 1.9 179 20.6
2003-09-05 12:22:55 51°20.34 2°45.73 150.6 1.8 193 19.3
2003-09-05 12:23:55 51°20.31 2°45.71 152 1.6 200 17.7
2003-09-05 12:24:53 51°20.29 2°45.7 151.6 1.6 203 16.6
2003-09-05 12:25:53 51°20.26 2°45.68 152.8 1.7 205 16.6
2003-09-05 12:26:55 51°20.24 2°45.66 157 1.7 203 17.9
2003-09-05 12:27:53 51°20.21 2°45.65 161.4 1.7 205 18.8
2003-09-05 12:28:53 51°20.18 2°45.62 171.4 1.8 210 19.5
2003-09-05 12:29:55 51°20.16 2°45.6 176.3 2 211 19.8
2003-09-05 12:30:55 51°20.13 2°45.57 179.8 2 213 19.7
2003-09-05 12:31:55 51°20.1 2°45.54 175.7 2.5 199 20
2003-09-05 12:32:53 51°20.01 2°45.6 133.4 8.2 134 14.5
2003-09-05 12:33:55 51°19.9 2°45.84 125.8 12.5 128 13.9
2003-09-05 12:34:53 51°19.78 2°46.1 126.5 12.9 127 13.5
2003-09-05 12:35:53 51°19.64 2°46.38 126.7 13 127 18.2
2003-09-05 12:36:55 51°19.51 2°46.66 127.6 13.1 128 20.6
2003-09-05 12:37:55 51°19.37 2°46.94 127.3 13.2 128 20.9
2003-09-05 12:38:53 51°19.26 2°47.22 123.4 13.1 122 20.8
2003-09-05 12:39:53 51°19.14 2°47.52 123.4 13.2 124 19.6
2003-09-05 12:40:53 51°19.02 2°47.81 123.3 13.1 124 17.7
2003-09-05 12:41:55 51°18.9 2°48.11 118.3 13 119 15.8
2003-09-05 12:42:53 51°18.8 2°48.4 118.9 12.8 119 12.7
2003-09-05 12:43:53 51°18.7 2°48.7 118.8 12.9 119 10.7
2003-09-05 12:44:53 51°18.59 2°48.99 118.4 12.9 118 10.1
2003-09-05 12:45:53 51°18.5 2°49.3 115.3 12.8 115 10.3
2003-09-05 12:46:53 51°18.41 2°49.61 115.5 13.1 115 12.2
2003-09-05 12:47:53 51°18.33 2°49.93 111.8 13 111 13.4
2003-09-05 12:48:53 51°18.25 2°50.25 111.9 13.1 112 13.5
2003-09-05 12:49:53 51°18.17 2°50.55 111.1 9.1 112 12.8
2003-09-05 12:50:53 51°18.13 2°50.68 107.3 2.5 118 12.6
2003-09-05 12:51:55 51°18.12 2°50.73 95.1 1.7 115 12.6
2003-09-05 12:52:53 51°18.1 2°50.76 123.8 1.8 150 12.6
2003-09-05 12:53:53 51°18.07 2°50.77 152.9 2 178 12.6
2003-09-05 12:54:55 51°18.03 2°50.76 183 2.3 201 12.4
2003-09-05 12:55:53 51°18 2°50.73 206.7 2.4 217 12.2
2003-09-05 12:56:53 51°17.97 2°50.69 211.2 2.5 222 12.3
2003-09-05 12:57:53 51°17.93 2°50.65 211.1 2.5 219 12.2
2003-09-05 12:58:53 51°17.9 2°50.6 210.3 2.6 219 12.3
2003-09-05 12:59:55 51°17.87 2°50.56 208.6 2.5 217 12.2
2003-09-05 13:00:55 51°17.83 2°50.52 206.9 2.5 220 12.2
2003-09-05 13:01:53 51°17.8 2°50.48 205.3 2.5 217 12
2003-09-05 13:02:55 51°17.77 2°50.44 203.4 2.5 215 12.1
2003-09-05 13:03:53 51°17.73 2°50.4 202.1 2.4 216 12.2
2003-09-05 13:04:55 51°17.7 2°50.36 201 2.4 215 12.1
2003-09-05 13:05:53 51°17.67 2°50.33 200.2 2.4 214 12
2003-09-05 13:06:53 51°17.63 2°50.29 214.9 3 220 12
2003-09-05 13:07:53 51°17.58 2°50.25 173 3.5 181 11.8
2003-09-05 13:08:55 51°17.53 2°50.32 104.1 6.5 105 10.8
2003-09-05 13:09:55 51°17.53 2°50.6 92 12.1 91 9.7
2003-09-05 13:10:53 51°17.52 2°50.92 95.4 12.4 94 9
2003-09-05 13:11:55 51°17.5 2°51.26 96 12.6 95 8.7
2003-09-05 13:12:55 51°17.48 2°51.6 96.9 12.9 97 9.1
2003-09-05 13:13:55 51°17.43 2°51.93 110.1 13 113 9.9
2003-09-05 13:14:55 51°17.31 2°52.22 126 13.2 127 9.6
2003-09-05 13:15:55 51°17.18 2°52.5 125.5 13 126 9.1
2003-09-05 13:16:55 51°17.05 2°52.78 125.3 13.2 127 9.2
2003-09-05 13:17:55 51°16.93 2°53.06 125.5 12.8 126 5.6
2003-09-05 13:18:55 51°16.8 2°53.34 124.5 13.6 125 10.5
2003-09-05 13:19:55 51°16.69 2°53.55 134.2 7.2 139 11.3
2003-09-05 13:20:55 51°16.62 2°53.59 161.6 2.9 178 11.6
2003-09-05 13:21:55 51°16.57 2°53.59 171.7 2.7 191 11.7
2003-09-05 13:22:55 51°16.53 2°53.57 178.6 2.6 201 11.8
2003-09-05 13:23:55 51°16.49 2°53.54 184.3 2.5 207 11.7
2003-09-05 13:24:55 51°16.46 2°53.51 196.1 2.5 214 11.8
2003-09-05 13:25:55 51°16.42 2°53.47 200.3 2.4 217 11.8
2003-09-05 13:26:55 51°16.39 2°53.43 199.6 2.4 218 11.9
2003-09-05 13:27:55 51°16.36 2°53.39 198.8 2.3 219 11.9
2003-09-05 13:28:55 51°16.33 2°53.35 198.8 2.3 218 11.9
2003-09-05 13:29:55 51°16.3 2°53.31 199.2 2.3 219 11.9
2003-09-05 13:30:55 51°16.27 2°53.28 198.6 2.2 218 11.9
2003-09-05 13:31:55 51°16.24 2°53.24 197.4 2.3 218 11.9
2003-09-05 13:32:55 51°16.21 2°53.2 197 2.2 218 11.9
2003-09-05 13:33:55 51°16.18 2°53.17 196.2 2.2 217 11.8
2003-09-05 13:34:55 51°16.16 2°53.13 195.2 2.2 217 12
2003-09-05 13:35:55 51°16.12 2°53.1 194.4 2.2 215 11.9
2003-09-05 13:36:55 51°16.09 2°53.06 192.6 2.2 215 11.8
2003-09-05 13:37:55 51°16.04 2°53.03 183.6 6.9 188 11.7
2003-09-05 13:38:55 51°15.87 2°53.01 181.7 12.6 184 11.4
2003-09-05 13:39:55 51°15.66 2°53.07 153.8 12.5 154 10.9
2003-09-05 13:40:55 51°15.5 2°53.26 138 12.3 140 10.4
2003-09-05 13:41:55 51°15.35 2°53.48 135.9 12.3 138 9.5
2003-09-05 13:42:55 51°15.2 2°53.7 134.5 12.2 136 9
2003-09-05 13:43:55 51°15.05 2°53.92 136.2 12.4 138 8.6
2003-09-05 13:44:55 51°14.9 2°54.14 133.5 12.3 133 8.4
2003-09-05 13:45:55 51°14.75 2°54.38 135.3 12.3 135 9.3
2003-09-05 13:46:55 51°14.62 2°54.62 132.5 12.1 133 8.9